Time;durP1;ratioP1;P1;durP2;ratioP2;P2;SDS_P1;SDS_P2;PMS_P1;PMS_P2;Temp;Humidity;BMP_temperature;BMP_pressure;BME280_temperature;BME280_humidity;BME280_pressure;Samples;Min_cycle;Max_cycle;Signal;HPM_P1;HPM_P2
2023/10/17 00:01:34;;;;;;;;;;;;;;;18.31;55.51;100144.94;10327641;28;861;-74
2023/10/17 00:06:30;;;;;;;;;;;;;;;18.30;55.63;100143.22;10326705;28;1251;-74
2023/10/17 00:11:32;;;;;;;;;;;;;;;18.28;55.63;100129.22;10326081;28;1885;-74
2023/10/17 00:16:30;;;;;;;;;;;;;;;18.26;55.81;100134.59;10326461;28;1131;-74
2023/10/17 00:21:27;;;;;;;;;;;;;;;18.27;55.57;100130.16;10327321;28;834;-74
2023/10/17 00:26:23;;;;;;;;;;;;;;;18.28;55.65;100130.09;10327119;28;856;-74
2023/10/17 00:31:21;;;;;;;;;;;;;;;18.26;55.61;100139.88;10325731;28;1910;-74
2023/10/17 00:36:19;;;;;;;;;;;;;;;18.25;55.69;100142.53;10327068;28;858;-75
2023/10/17 00:41:29;;;;;;;;;;;;;;;18.23;55.65;100136.47;10326840;28;868;-74
2023/10/17 00:46:25;;;;;;;;;;;;;;;18.26;55.71;100128.41;10326621;28;1192;-75
2023/10/17 00:51:22;;;;;;;;;;;;;;;18.27;55.58;100127.53;10326713;28;1971;-74
2023/10/17 00:56:17;;;;;;;;;;;;;;;18.27;55.78;100116.97;10326273;28;867;-74
2023/10/17 01:01:16;;;;;;;;;;;;;;;18.25;55.79;100105.59;10325891;28;867;-75
2023/10/17 01:06:36;;;;;;;;;;;;;;;18.24;55.56;100111.81;10325550;28;777;-74
2023/10/17 01:11:32;;;;;;;;;;;;;;;18.25;55.64;100116.16;10325331;28;1953;-74
2023/10/17 01:16:31;;;;;;;;;;;;;;;18.27;55.63;100109.06;10326752;28;833;-74
2023/10/17 01:21:27;;;;;;;;;;;;;;;18.27;55.36;100106.41;10325141;28;881;-74
2023/10/17 01:26:23;;;;;;;;;;;;;;;18.25;55.69;100109.09;10331365;28;842;-74
2023/10/17 01:31:22;;;;;;;;;;;;;;;18.25;55.67;100113.53;10332727;28;1894;-74
2023/10/17 01:36:19;;;;;;;;;;;;;;;18.21;55.75;100114.53;10333220;28;822;-74
2023/10/17 01:41:15;;;;;;;;;;;;;;;18.21;55.56;100115.44;10333562;28;919;-74
2023/10/17 01:46:14;;;;;;;;;;;;;;;18.24;55.67;100117.09;10332508;28;1142;-74
2023/10/17 01:51:12;;;;;;;;;;;;;;;18.24;55.63;100111.81;10332676;28;1910;-74
2023/10/17 01:56:20;;;;;;;;;;;;;;;18.23;55.71;100107.44;10332396;28;859;-74
2023/10/17 02:01:17;;;;;;;;;;;;;;;18.19;55.70;100090.88;10332755;28;894;-74
2023/10/17 02:06:22;;;;;;;;;;;;;;;18.19;55.73;100082.97;10332686;28;863;-74
2023/10/17 02:11:24;;;;;;;;;;;;;;;18.22;55.54;100076.72;10332600;28;1947;-74
2023/10/17 02:16:20;;;;;;;;;;;;;;;18.23;55.54;100071.34;10332502;28;940;-74
2023/10/17 02:21:16;;;;;;;;;;;;;;;18.22;55.68;100072.28;10331390;28;934;-74
2023/10/17 02:26:12;;;;;;;;;;;;;;;18.18;55.77;100073.31;10331284;28;790;-74
2023/10/17 02:31:08;;;;;;;;;;;;;;;18.16;55.80;100072.53;10331052;28;1898;-74
2023/10/17 02:36:12;;;;;;;;;;;;;;;18.17;55.61;100069.81;10331954;28;995;-74
2023/10/17 02:41:28;;;;;;;;;;;;;;;18.20;55.44;100079.41;10330807;28;937;-74
2023/10/17 02:46:27;;;;;;;;;;;;;;;18.20;55.63;100078.53;10330499;28;1254;-73
2023/10/17 02:56:19;;;;;;;;;;;;;;;18.16;55.78;100070.75;10330205;28;860;-74
2023/10/17 03:01:15;;;;;;;;;;;;;;;18.14;55.67;100077.00;10329996;28;824;-75
2023/10/17 03:06:15;;;;;;;;;;;;;;;18.16;55.51;100075.19;10329728;28;910;-74
2023/10/17 03:11:16;;;;;;;;;;;;;;;18.15;55.78;100076.94;10331369;28;1894;-74
2023/10/17 03:16:30;;;;;;;;;;;;;;;18.14;55.82;100077.88;10329964;28;852;-74
2023/10/17 03:21:35;;;;;;;;;;;;;;;18.11;55.80;100085.91;10329231;28;960;-74
2023/10/17 03:26:39;;;;;;;;;;;;;;;18.11;55.77;100078.00;10329640;28;838;-74
2023/10/17 03:31:38;;;;;;;;;;;;;;;18.13;55.57;100065.59;10329764;28;1889;-74
2023/10/17 03:36:49;;;;;;;;;;;;;;;18.13;55.71;100060.31;10329128;28;881;-74
2023/10/17 03:41:45;;;;;;;;;;;;;;;18.10;55.95;100064.84;10328343;28;950;-74
2023/10/17 03:46:41;;;;;;;;;;;;;;;18.09;55.74;100057.88;10327095;28;1287;-74
2023/10/17 03:51:39;;;;;;;;;;;;;;;18.10;55.60;100054.28;10326105;28;1971;-72
2023/10/17 03:56:44;;;;;;;;;;;;;;;18.11;55.55;100056.03;10327749;28;838;-73
2023/10/17 04:01:41;;;;;;;;;;;;;;;18.10;55.66;100041.09;10325297;28;1066;-72
2023/10/17 04:06:41;;;;;;;;;;;;;;;18.09;55.73;100056.06;10326948;28;902;-72
2023/10/17 04:11:36;;;;;;;;;;;;;;;18.11;55.72;100059.53;10327087;28;1959;-72
2023/10/17 04:16:39;;;;;;;;;;;;;;;18.12;55.60;100037.47;10326989;28;762;-73
2023/10/17 04:21:45;;;;;;;;;;;;;;;18.17;55.42;100051.34;10327348;28;830;-73
2023/10/17 04:26:45;;;;;;;;;;;;;;;18.16;55.59;100052.28;10324408;28;1054;-72
2023/10/17 04:31:43;;;;;;;;;;;;;;;18.20;55.37;100054.78;10326324;28;1890;-72
2023/10/17 04:36:39;;;;;;;;;;;;;;;18.22;55.47;100061.72;10325471;28;1117;-72
2023/10/17 04:46:49;;;;;;;;;;;;;;;18.22;55.40;100066.16;10325952;28;1226;-71
2023/10/17 04:51:45;;;;;;;;;;;;;;;18.23;55.35;100063.44;10326409;28;1913;-71
2023/10/17 04:56:55;;;;;;;;;;;;;;;18.23;55.22;100070.50;10325709;28;841;-71
2023/10/17 05:01:53;;;;;;;;;;;;;;;18.21;55.31;100072.34;10325643;28;993;-71
2023/10/17 06:21:06;;;;;;;;;;;;;;;18.15;54.88;100095.41;10330916;28;616;-74
2023/10/17 06:26:05;;;;;;;;;;;;;;;18.08;55.27;100104.50;10328202;28;1782;-71
2023/10/17 06:31:34;;;;;;;;;;;;;;;18.05;55.19;100112.53;10330952;28;1901;-72
2023/10/17 06:36:24;;;;;;;;;;;;;;;18.00;55.35;100101.28;10329938;28;1573;-71
2023/10/17 06:41:38;;;;;;;;;;;;;;;18.06;54.90;100110.75;10330548;28;813;-71
2023/10/17 06:46:40;;;;;;;;;;;;;;;18.14;54.24;100106.88;10330854;28;1154;-72
2023/10/17 06:51:36;;;;;;;;;;;;;;;18.12;54.57;100115.78;10330113;28;1910;-73
2023/10/17 06:56:38;;;;;;;;;;;;;;;18.11;54.52;100125.47;10330183;28;752;-72
2023/10/17 07:01:34;;;;;;;;;;;;;;;18.26;53.85;100124.03;10330557;28;763;-71
2023/10/17 07:06:32;;;;;;;;;;;;;;;18.28;54.05;100105.47;10329745;28;910;-72
2023/10/17 07:11:30;;;;;;;;;;;;;;;18.30;54.30;100098.38;10329578;28;1894;-72
2023/10/17 07:16:27;;;;;;;;;;;;;;;18.33;54.15;100093.81;10330026;28;882;-72
2023/10/17 07:21:24;;;;;;;;;;;;;;;18.29;54.41;100094.03;10328177;28;854;-72
2023/10/17 07:31:24;;;;;;;;;;;;;;;18.34;54.48;100092.06;10329380;28;1886;-71
2023/10/17 07:36:20;;;;;;;;;;;;;;;18.37;54.21;100091.94;10328303;28;1040;-72
2023/10/17 07:41:36;;;;;;;;;;;;;;;18.35;54.48;100099.91;10329180;28;890;-72
2023/10/17 07:46:34;;;;;;;;;;;;;;;18.40;54.18;100100.56;10328479;28;1345;-72
2023/10/17 07:51:30;;;;;;;;;;;;;;;18.39;54.41;100092.69;10328322;28;1909;-72
2023/10/17 07:56:26;;;;;;;;;;;;;;;18.35;54.69;100091.13;10327878;28;1020;-71
2023/10/17 08:01:31;;;;;;;;;;;;;;;18.35;54.44;100086.69;10328100;28;845;-73
2023/10/17 08:06:29;;;;;;;;;;;;;;;18.39;54.69;100082.16;10327724;28;1597;-73
2023/10/17 08:11:31;;;;;;;;;;;;;;;18.38;54.58;100086.56;10327127;28;1910;-71
2023/10/17 08:16:32;;;;;;;;;;;;;;;18.29;54.90;100091.38;10327630;28;799;-71
2023/10/17 08:21:35;;;;;;;;;;;;;;;18.29;54.58;100094.88;10326775;28;887;-71
2023/10/17 08:26:40;;;;;;;;;;;;;;;18.29;54.48;100096.66;10324084;28;1169;-71
2023/10/17 08:31:36;;;;;;;;;;;;;;;18.26;54.81;100087.09;10325742;28;1913;-72
2023/10/17 08:41:36;;;;;;;;;;;;;;;18.30;54.26;100090.44;10325973;28;920;-72
2023/10/17 08:46:32;;;;;;;;;;;;;;;18.28;54.27;100087.84;10326032;28;1342;-71
2023/10/17 08:51:29;;;;;;;;;;;;;;;18.28;54.49;100081.72;10325805;28;1910;-72
2023/10/17 08:56:26;;;;;;;;;;;;;;;18.31;54.26;100078.97;10325390;28;1222;-70
2023/10/17 09:01:21;;;;;;;;;;;;;;;18.37;54.00;100065.53;10325565;28;961;-70
2023/10/17 09:11:29;;;;;;;;;;;;;;;18.39;54.17;100075.13;10322499;28;1914;-71
2023/10/17 09:16:30;;;;;;;;;;;;;;;18.39;54.17;100076.88;10324678;28;798;-71
2023/10/17 09:21:26;;;;;;;;;;;;;;;18.37;54.49;100068.19;10307282;28;878;-71
2023/10/17 09:26:23;;;;;;;;;;;;;;;18.37;54.38;100073.47;10295402;28;922;-71
2023/10/17 09:31:20;;;;;;;;;;;;;;;18.34;54.47;100073.59;10324760;28;1987;-71
2023/10/17 09:36:19;;;;;;;;;;;;;;;18.34;54.69;100079.72;10325151;28;954;-71
2023/10/17 09:41:17;;;;;;;;;;;;;;;18.35;54.63;100070.00;10324707;28;798;-71
2023/10/17 09:46:13;;;;;;;;;;;;;;;18.33;54.92;100077.97;10320086;28;1238;-70
2023/10/17 09:51:10;;;;;;;;;;;;;;;18.35;54.75;100065.59;10331815;28;1922;-71
2023/10/17 09:56:06;;;;;;;;;;;;;;;18.34;54.77;100055.13;10332979;28;850;-71
2023/10/17 10:01:05;;;;;;;;;;;;;;;18.36;54.76;100056.75;10331854;28;937;-70
2023/10/17 10:06:01;;;;;;;;;;;;;;;18.33;54.71;100037.53;10332007;28;857;-71
2023/10/17 10:10:57;;;;;;;;;;;;;;;18.36;54.92;100050.59;10330706;28;1898;-70
2023/10/17 10:15:53;;;;;;;;;;;;;;;18.34;55.05;100050.69;10331400;28;849;-71
2023/10/17 10:20:49;;;;;;;;;;;;;;;18.36;54.84;100034.78;10331796;28;946;-71
2023/10/17 10:25:45;;;;;;;;;;;;;;;18.38;54.81;100039.06;10330942;28;834;-71
2023/10/17 10:30:43;;;;;;;;;;;;;;;18.41;54.88;100038.09;10331780;28;1963;-71
2023/10/17 10:35:39;;;;;;;;;;;;;;;18.39;55.14;100024.09;10330708;28;817;-71
2023/10/17 10:40:39;;;;;;;;;;;;;;;18.40;54.73;100020.53;10330698;28;911;-73
2023/10/17 10:45:35;;;;;;;;;;;;;;;18.42;55.09;100028.38;10330674;28;861;-71
2023/10/17 10:50:31;;;;;;;;;;;;;;;18.40;54.89;100017.91;10328569;28;1910;-71
2023/10/17 10:55:27;;;;;;;;;;;;;;;18.36;54.98;100006.59;10328071;28;865;-72
2023/10/17 11:00:23;;;;;;;;;;;;;;;18.31;55.12;100015.63;10328117;28;858;-72
2023/10/17 11:05:19;;;;;;;;;;;;;;;18.30;55.20;100012.13;10326889;28;999;-72
2023/10/17 11:10:18;;;;;;;;;;;;;;;18.32;54.99;99999.75;10327285;28;1951;-71
2023/10/17 11:15:19;;;;;;;;;;;;;;;18.38;54.77;100006.53;10328331;28;916;-71
2023/10/17 11:20:18;;;;;;;;;;;;;;;18.39;54.66;100008.25;10327806;28;766;-71
2023/10/17 11:25:21;;;;;;;;;;;;;;;18.38;54.54;100004.75;10327866;28;862;-71
2023/10/17 11:30:19;;;;;;;;;;;;;;;18.40;54.75;99991.50;10326852;28;1894;-71
2023/10/17 11:35:19;;;;;;;;;;;;;;;18.37;54.96;99989.84;10326746;28;962;-71
2023/10/17 11:40:28;;;;;;;;;;;;;;;18.41;54.86;99974.75;10326496;28;877;-71
2023/10/17 11:45:33;;;;;;;;;;;;;;;18.36;54.97;99964.38;10326380;28;969;-70
2023/10/17 11:50:29;;;;;;;;;;;;;;;18.37;55.03;99957.34;10288916;28;1091188;-71
2023/10/17 11:55:25;;;;;;;;;;;;;;;18.38;55.00;99957.25;10327256;28;901;-71
2023/10/17 12:00:22;;;;;;;;;;;;;;;18.35;55.11;99956.53;10327056;28;1287;-71
2023/10/17 12:05:18;;;;;;;;;;;;;;;18.28;55.25;99961.19;10327435;28;905;-71
2023/10/17 12:10:15;;;;;;;;;;;;;;;18.28;55.25;99957.72;10326688;28;1959;-72
2023/10/17 12:15:13;;;;;;;;;;;;;;;18.20;55.28;99960.66;10327310;28;865;-71
2023/10/17 12:20:12;;;;;;;;;;;;;;;18.23;55.48;99962.31;10326952;28;810;-71
2023/10/17 12:25:13;;;;;;;;;;;;;;;18.20;55.51;99955.38;10326835;28;784;-72
2023/10/17 12:30:11;;;;;;;;;;;;;;;18.17;55.50;99951.09;10326302;28;1951;-72
2023/10/17 12:35:12;;;;;;;;;;;;;;;18.27;55.24;99950.72;10326829;28;926;-72
2023/10/17 12:40:18;;;;;;;;;;;;;;;18.29;55.25;99933.06;10325933;28;1280;-72
2023/10/17 12:45:20;;;;;;;;;;;;;;;18.39;54.78;99929.97;10326035;28;854;-72
2023/10/17 12:50:18;;;;;;;;;;;;;;;18.55;54.48;99922.25;10326729;28;1910;-72
2023/10/17 12:55:13;;;;;;;;;;;;;;;18.62;54.41;99905.19;10325675;28;878;-72
2023/10/17 13:00:09;;;;;;;;;;;;;;;18.70;54.28;99898.72;10326213;28;841;-71
2023/10/17 13:05:05;;;;;;;;;;;;;;;18.86;53.78;99886.56;10326258;28;818;-71
2023/10/17 13:10:01;;;;;;;;;;;;;;;19.00;53.49;99888.59;10325449;28;1957;-71
2023/10/17 13:14:57;;;;;;;;;;;;;;;19.12;53.32;99881.88;10325153;28;882;-72
2023/10/17 13:19:53;;;;;;;;;;;;;;;19.09;53.68;99867.00;10324351;28;874;-68
2023/10/17 13:24:50;;;;;;;;;;;;;;;19.25;53.20;99869.78;10325394;28;959;-72
2023/10/17 13:29:46;;;;;;;;;;;;;;;19.39;52.84;99848.84;10325913;28;2030;-71
2023/10/17 13:34:42;;;;;;;;;;;;;;;19.47;52.88;99849.34;10325658;28;767;-70
2023/10/17 13:39:38;;;;;;;;;;;;;;;19.44;53.07;99844.19;10324975;28;747;-73
2023/10/17 13:44:34;;;;;;;;;;;;;;;19.59;52.87;99845.22;10325539;28;853;-74
2023/10/17 13:49:30;;;;;;;;;;;;;;;19.67;52.79;99839.59;10324825;28;1969;-73
2023/10/17 13:54:34;;;;;;;;;;;;;;;19.73;52.57;99825.19;10324091;28;954;-74
2023/10/17 13:59:39;;;;;;;;;;;;;;;19.80;52.63;99827.47;10324650;28;857;-73
2023/10/17 14:04:36;;;;;;;;;;;;;;;19.88;52.56;99829.72;10324623;28;827;-72
2023/10/17 14:09:31;;;;;;;;;;;;;;;19.95;52.33;99827.63;10325491;28;1953;-75
2023/10/17 14:14:30;;;;;;;;;;;;;;;19.99;52.44;99831.81;10324309;28;849;-76
2023/10/17 14:19:37;;;;;;;;;;;;;;;20.02;52.41;99815.81;10324072;28;974;-77
2023/10/17 14:29:52;;;;;;;;;;;;;;;20.12;52.13;99804.66;10324043;28;1894;-77
2023/10/17 14:34:47;;;;;;;;;;;;;;;20.16;52.19;99789.47;10330504;28;1620;-77
2023/10/17 14:39:43;;;;;;;;;;;;;;;20.22;51.99;99790.94;10330920;28;886;-77
2023/10/17 14:44:41;;;;;;;;;;;;;;;20.28;51.99;99793.28;10330800;28;774;-77
2023/10/17 14:49:37;;;;;;;;;;;;;;;20.33;52.09;99781.50;10330092;28;1918;-77
2023/10/17 14:54:34;;;;;;;;;;;;;;;20.39;51.78;99790.06;10331037;28;854;-77
2023/10/17 14:59:30;;;;;;;;;;;;;;;20.39;51.93;99790.91;10329525;28;1365;-77
2023/10/17 15:04:25;;;;;;;;;;;;;;;20.44;51.80;99795.97;10330092;28;954;-77
2023/10/17 15:09:21;;;;;;;;;;;;;;;20.49;51.82;99793.94;10329873;28;1939;-77
2023/10/17 15:14:18;;;;;;;;;;;;;;;20.51;51.67;99778.78;10329942;28;793;-77
2023/10/17 15:19:14;;;;;;;;;;;;;;;20.45;51.84;99776.47;10330111;28;877;-77
2023/10/17 15:24:12;;;;;;;;;;;;;;;20.41;52.02;99775.81;10329327;28;913;-77
2023/10/17 15:29:08;;;;;;;;;;;;;;;20.16;52.64;99786.84;10329050;28;1905;-77
2023/10/17 15:34:04;;;;;;;;;;;;;;;20.13;52.67;99789.63;10329519;28;802;-77
2023/10/17 15:39:00;;;;;;;;;;;;;;;20.09;52.85;99777.50;10329200;28;938;-77
2023/10/17 15:43:56;;;;;;;;;;;;;;;20.00;53.11;99793.88;10327406;28;896;-77
2023/10/17 15:48:54;;;;;;;;;;;;;;;19.83;53.52;99792.06;10609096;22;2663;-78
2023/10/17 15:53:50;;;;;;;;;;;;;;;19.71;53.79;99790.91;10327183;28;1893;-77
2023/10/17 15:58:46;;;;;;;;;;;;;;;19.61;54.11;99777.25;10327852;28;802;-77
2023/10/17 16:03:46;;;;;;;;;;;;;;;19.59;54.16;99794.13;10327716;28;803;-77
2023/10/17 16:08:44;;;;;;;;;;;;;;;19.51;54.32;99805.09;10328014;28;1910;-77
2023/10/17 16:13:40;;;;;;;;;;;;;;;19.44;54.37;99799.25;10327237;28;875;-77
2023/10/17 16:18:37;;;;;;;;;;;;;;;19.41;54.60;99795.91;10326537;28;834;-77
2023/10/17 16:23:34;;;;;;;;;;;;;;;19.41;54.53;99798.53;10327605;28;878;-77
2023/10/17 16:28:30;;;;;;;;;;;;;;;19.38;54.43;99793.41;10327488;28;1897;-77
2023/10/17 16:33:26;;;;;;;;;;;;;;;19.31;54.53;99790.22;10326590;28;760;-78
2023/10/17 16:38:22;;;;;;;;;;;;;;;19.28;54.52;99790.34;10326974;28;864;-78
2023/10/17 16:43:18;;;;;;;;;;;;;;;19.32;54.39;99789.28;10326236;28;769;-77
2023/10/17 16:48:14;;;;;;;;;;;;;;;19.29;54.51;99796.53;10325501;28;909;-77
2023/10/17 16:53:10;;;;;;;;;;;;;;;19.25;54.65;99801.94;10289905;28;1889;-77
2023/10/17 16:58:06;;;;;;;;;;;;;;;19.23;54.68;99805.56;10285787;28;886;-77
2023/10/17 17:03:02;;;;;;;;;;;;;;;19.24;54.62;99809.94;10285045;28;905;-77
2023/10/17 17:07:57;;;;;;;;;;;;;;;19.21;54.68;99808.31;10284931;28;885;-77
2023/10/17 17:12:53;;;;;;;;;;;;;;;19.18;54.62;99815.53;10284756;28;1914;-77
2023/10/17 17:17:49;;;;;;;;;;;;;;;19.18;54.79;99818.19;10284697;28;830;-77
2023/10/17 17:22:45;;;;;;;;;;;;;;;19.19;54.78;99817.25;10284573;28;783;-77
2023/10/17 17:27:41;;;;;;;;;;;;;;;19.18;54.59;99818.19;10285102;28;869;-77
2023/10/17 17:32:37;;;;;;;;;;;;;;;19.15;54.61;99813.00;10284642;28;1894;-78
2023/10/17 17:37:36;;;;;;;;;;;;;;;19.16;54.60;99820.88;10284872;28;917;-77
2023/10/17 17:42:32;;;;;;;;;;;;;;;19.16;54.70;99809.47;10283660;28;865;-77
2023/10/17 17:47:28;;;;;;;;;;;;;;;19.16;54.65;99815.59;10284726;28;801;-78
2023/10/17 17:52:24;;;;;;;;;;;;;;;19.12;54.84;99819.31;10283770;28;1894;-77
2023/10/17 17:57:20;;;;;;;;;;;;;;;19.13;54.70;99815.75;10283913;28;783;-77
2023/10/17 18:02:19;;;;;;;;;;;;;;;19.14;54.71;99804.25;10284445;28;774;-78
2023/10/17 18:07:17;;;;;;;;;;;;;;;19.13;54.70;99806.97;10288171;28;841;-77
2023/10/17 18:12:15;;;;;;;;;;;;;;;19.12;54.85;99797.31;10290816;28;1914;-78
2023/10/17 18:17:13;;;;;;;;;;;;;;;19.13;54.78;99788.47;10291271;28;861;-78
2023/10/17 18:22:10;;;;;;;;;;;;;;;19.12;54.84;99784.09;10291002;28;969;-78
2023/10/17 18:27:06;;;;;;;;;;;;;;;19.11;54.83;99783.25;10290785;28;1074;-78
2023/10/17 18:32:02;;;;;;;;;;;;;;;19.12;54.75;99782.31;10291222;28;1898;-78
2023/10/17 18:36:59;;;;;;;;;;;;;;;19.11;54.71;99782.41;10290478;28;890;-78
2023/10/17 18:41:55;;;;;;;;;;;;;;;19.12;54.82;99777.03;10290837;28;838;-78
2023/10/17 18:46:51;;;;;;;;;;;;;;;19.12;54.92;99778.81;10290939;28;861;-77
2023/10/17 18:51:47;;;;;;;;;;;;;;;19.12;54.87;99769.09;10290669;28;1973;-78
2023/10/17 18:56:43;;;;;;;;;;;;;;;19.11;54.81;99774.47;10289807;28;892;-78
2023/10/17 19:01:39;;;;;;;;;;;;;;;19.12;54.81;99768.25;10289620;28;884;-77
2023/10/17 19:06:35;;;;;;;;;;;;;;;19.13;54.67;99772.63;10290070;28;861;-78
2023/10/17 19:11:31;;;;;;;;;;;;;;;19.11;54.85;99763.91;10289718;28;1906;-77
2023/10/17 19:16:27;;;;;;;;;;;;;;;19.12;54.78;99755.03;10289000;28;929;-77
2023/10/17 19:21:23;;;;;;;;;;;;;;;19.12;54.67;99757.69;10289466;28;991;-77
2023/10/17 19:26:19;;;;;;;;;;;;;;;19.14;54.81;99769.03;10288604;28;790;-77
2023/10/17 19:31:15;;;;;;;;;;;;;;;19.13;54.85;99762.06;10288344;28;1902;-77
2023/10/17 19:36:11;;;;;;;;;;;;;;;19.14;54.74;99759.31;10288891;28;795;-77
2023/10/17 19:41:07;;;;;;;;;;;;;;;19.08;54.78;99766.72;10288164;28;837;-77
2023/10/17 19:46:03;;;;;;;;;;;;;;;19.05;54.96;99760.63;10288496;28;1012;-77
2023/10/17 19:50:59;;;;;;;;;;;;;;;19.01;54.94;99764.34;10286945;28;1959;-78
2023/10/17 19:55:55;;;;;;;;;;;;;;;18.98;54.96;99750.44;10287077;28;870;-77
2023/10/17 20:00:52;;;;;;;;;;;;;;;18.99;54.91;99741.56;10287240;28;874;-77
2023/10/17 20:05:48;;;;;;;;;;;;;;;19.01;54.82;99734.44;10286486;28;953;-77
2023/10/17 20:10:44;;;;;;;;;;;;;;;19.01;54.85;99726.50;10287682;28;1918;-77
2023/10/17 20:15:40;;;;;;;;;;;;;;;18.98;54.99;99711.66;10286705;28;856;-77
2023/10/17 20:20:37;;;;;;;;;;;;;;;18.94;54.92;99710.13;10286538;28;798;-78
2023/10/17 20:25:33;;;;;;;;;;;;;;;18.96;54.96;99713.50;10286314;28;980;-77
2023/10/17 20:30:29;;;;;;;;;;;;;;;18.97;54.95;99703.84;10285509;28;1991;-77
2023/10/17 20:35:32;;;;;;;;;;;;;;;18.96;54.83;99695.03;10286143;28;929;-77
2023/10/17 20:40:27;;;;;;;;;;;;;;;18.95;54.95;99690.69;10285848;28;795;-77
2023/10/17 20:45:23;;;;;;;;;;;;;;;18.93;54.98;99683.78;10285723;28;742;-77
2023/10/17 20:50:20;;;;;;;;;;;;;;;18.92;55.10;99687.34;10286142;28;1906;-77
2023/10/17 20:55:15;;;;;;;;;;;;;;;18.91;55.11;99682.97;10285292;28;869;-77
2023/10/17 21:00:13;;;;;;;;;;;;;;;18.93;54.83;99684.63;10285751;28;877;-77
2023/10/17 21:05:09;;;;;;;;;;;;;;;18.92;54.92;99680.28;10285006;28;996;-77
2023/10/17 21:10:05;;;;;;;;;;;;;;;18.90;54.94;99671.56;10284850;28;1914;-77
2023/10/17 21:15:16;;;;;;;;;;;;;;;18.90;54.82;99668.94;10284764;28;850;-77
2023/10/17 21:20:12;;;;;;;;;;;;;;;18.89;54.88;99659.31;10284661;28;813;-78
2023/10/17 21:25:08;;;;;;;;;;;;;;;18.87;54.99;99650.59;10284575;28;821;-77
2023/10/17 21:30:04;;;;;;;;;;;;;;;18.86;54.99;99643.59;10284986;28;1963;-77
2023/10/17 21:34:59;;;;;;;;;;;;;;;18.83;55.08;99633.19;10284421;28;783;-77
2023/10/17 21:39:55;;;;;;;;;;;;;;;18.81;54.93;99619.19;10283909;28;888;-77
2023/10/17 21:44:51;;;;;;;;;;;;;;;18.83;55.01;99612.91;10292472;28;859;-77
2023/10/17 21:49:47;;;;;;;;;;;;;;;18.84;54.83;99608.50;10291826;28;1902;-77
2023/10/17 21:54:43;;;;;;;;;;;;;;;18.86;54.83;99606.63;10292747;28;889;-78
2023/10/17 21:59:39;;;;;;;;;;;;;;;18.85;54.97;99598.78;10291946;28;838;-78
2023/10/17 22:04:39;;;;;;;;;;;;;;;18.82;54.93;99605.06;10291783;28;896;-78
2023/10/17 22:09:37;;;;;;;;;;;;;;;18.80;55.00;99601.66;10290935;28;1905;-77
2023/10/17 22:14:33;;;;;;;;;;;;;;;18.82;54.95;99597.16;10290779;28;956;-77
2023/10/17 22:19:31;;;;;;;;;;;;;;;18.82;54.79;99600.63;10291107;28;917;-77
2023/10/17 22:24:28;;;;;;;;;;;;;;;18.80;55.04;99596.38;10291979;28;870;-78
2023/10/17 22:29:27;;;;;;;;;;;;;;;18.78;54.98;99600.88;10290771;28;1894;-77
2023/10/17 22:34:23;;;;;;;;;;;;;;;18.77;54.94;99604.44;10290718;28;875;-77
2023/10/17 22:39:19;;;;;;;;;;;;;;;18.78;55.02;99599.06;10291121;28;849;-77
2023/10/17 22:44:15;;;;;;;;;;;;;;;18.81;54.89;99592.78;10290926;28;817;-77
2023/10/17 22:49:11;;;;;;;;;;;;;;;18.80;54.87;99577.88;10290005;28;1961;-77
2023/10/17 22:54:07;;;;;;;;;;;;;;;18.79;55.21;99573.53;10289529;28;837;-77
2023/10/17 22:59:04;;;;;;;;;;;;;;;18.77;54.92;99565.69;10290366;28;955;-77
2023/10/17 23:04:00;;;;;;;;;;;;;;;18.75;55.01;99559.63;10289793;28;1013;-78
2023/10/17 23:08:56;;;;;;;;;;;;;;;18.74;55.00;99560.53;10289224;28;1914;-77
2023/10/17 23:13:53;;;;;;;;;;;;;;;18.76;54.83;99540.22;10289629;28;929;-78
2023/10/17 23:18:48;;;;;;;;;;;;;;;18.77;54.89;99543.72;10288348;28;893;-78
2023/10/17 23:23:44;;;;;;;;;;;;;;;18.75;54.89;99545.56;10289597;28;809;-77
2023/10/17 23:28:40;;;;;;;;;;;;;;;18.72;54.99;99533.34;10288003;28;1874;-77
2023/10/17 23:33:36;;;;;;;;;;;;;;;18.73;54.83;99531.56;10287853;28;952;-78
2023/10/17 23:38:32;;;;;;;;;;;;;;;18.73;54.78;99516.59;10288216;28;893;-77
2023/10/17 23:43:28;;;;;;;;;;;;;;;18.73;55.00;99524.50;10288069;28;1031;-77
2023/10/17 23:48:27;;;;;;;;;;;;;;;18.72;54.96;99519.31;10287626;28;899;-78
2023/10/17 23:53:27;;;;;;;;;;;;;;;18.71;55.14;99522.88;10287451;28;1890;-78
2023/10/17 23:58:23;;;;;;;;;;;;;;;18.68;55.06;99518.59;10287498;28;857;-78
